Time;durP1;ratioP1;P1;durP2;ratioP2;P2;SDS_P1;SDS_P2;PMS_P1;PMS_P2;Temp;Humidity;BMP_temperature;BMP_pressure;BME280_temperature;BME280_humidity;BME280_pressure;Samples;Min_cycle;Max_cycle;Signal;HPM_P1;HPM_P2
2021/04/05 00:00:30;;;;;;;34.38;12.98;;;;;;;-1.09;86.89;99125.16;1806190;79;21317;-70
2021/04/05 00:02:58;;;;;;;30.02;13.55;;;;;;;-1.13;86.77;99125.37;1806160;79;21059;-70
2021/04/05 00:05:32;;;;;;;29.60;10.93;;;;;;;-1.18;86.82;99123.99;1806160;79;20928;-70
2021/04/05 00:08:00;;;;;;;42.27;14.60;;;;;;;-1.22;86.82;99124.20;1806177;79;21020;-70
2021/04/05 00:10:34;;;;;;;29.65;13.88;;;;;;;-1.27;86.98;99124.67;1806143;79;20912;-71
2021/04/05 00:13:06;;;;;;;29.67;13.58;;;;;;;-1.29;87.27;99119.53;1806153;79;21354;-71
2021/04/05 00:15:35;;;;;;;30.10;13.20;;;;;;;-1.31;87.25;99118.97;1806103;79;20956;-70
2021/04/05 00:18:04;;;;;;;30.68;14.13;;;;;;;-1.35;87.23;99115.95;1807044;79;20924;-70
2021/04/05 00:20:37;;;;;;;35.43;14.03;;;;;;;-1.36;87.26;99116.20;1778023;79;20999;-70
2021/04/05 00:23:13;;;;;;;31.25;14.40;;;;;;;-1.37;87.25;99110.00;1865435;76;22711;-70
2021/04/05 00:25:41;;;;;;;34.58;16.07;;;;;;;-1.43;87.36;99108.83;1808673;79;21487;-72
2021/04/05 00:28:09;;;;;;;38.98;16.25;;;;;;;-1.47;87.37;99107.17;1819225;78;21192;-72
2021/04/05 00:30:38;;;;;;;36.80;14.73;;;;;;;-1.52;87.44;99100.36;1841632;78;20995;-72
2021/04/05 00:33:05;;;;;;;33.63;15.45;;;;;;;-1.57;87.50;99094.91;1841628;78;20995;-73
2021/04/05 00:35:35;;;;;;;37.60;16.42;;;;;;;-1.61;87.60;99099.16;1841646;78;21181;-73
2021/04/05 00:38:09;;;;;;;35.38;16.50;;;;;;;-1.66;87.74;99091.83;1831556;78;20932;-73
2021/04/05 00:40:54;;;;;;;44.55;15.68;;;;;;;-1.69;87.97;99084.77;1841772;78;21355;-73
2021/04/05 00:43:21;;;;;;;39.73;17.17;;;;;;;-1.71;88.12;99093.09;1841642;78;20955;-73
2021/04/05 00:45:49;;;;;;;39.73;16.73;;;;;;;-1.71;88.36;99089.59;1841572;78;20917;-73
2021/04/05 00:48:17;;;;;;;39.65;15.43;;;;;;;-1.70;88.44;99087.99;1841624;78;21580;-73
2021/04/05 00:51:02;;;;;;;41.33;15.98;;;;;;;-1.71;88.45;99085.55;1811261;78;21019;-73
2021/04/05 00:53:36;;;;;;;43.00;16.42;;;;;;;-1.71;88.44;99084.20;1841658;78;21189;-72
2021/04/05 00:56:04;;;;;;;38.28;15.75;;;;;;;-1.72;88.44;99082.58;1841572;78;20932;-70
2021/04/05 00:58:32;;;;;;;37.05;16.60;;;;;;;-1.73;88.40;99083.64;1841603;77;21011;-70
2021/04/05 01:01:03;;;;;;;38.50;15.80;;;;;;;-1.74;88.38;99076.66;1833718;78;20942;-72
2021/04/05 01:03:33;;;;;;;37.15;15.05;;;;;;;-1.76;88.42;99084.97;1808618;79;21466;-73
2021/04/05 01:06:23;;;;;;;36.83;14.90;;;;;;;-1.77;88.36;99078.50;1808705;79;22115;-72
2021/04/05 01:08:51;;;;;;;41.65;15.83;;;;;;;-1.80;88.37;99080.33;1808556;78;20991;-72
2021/04/05 01:11:20;;;;;;;39.78;17.07;;;;;;;-1.83;88.54;99083.52;1808573;79;21011;-71
2021/04/05 01:13:48;;;;;;;41.13;16.82;;;;;;;-1.86;88.59;99077.28;1808570;79;20976;-71
2021/04/05 01:16:16;;;;;;;41.35;15.58;;;;;;;-1.87;88.58;99078.34;1808597;79;21137;-71
2021/04/05 01:18:43;;;;;;;41.40;16.37;;;;;;;-1.91;88.58;99075.33;1808569;79;21433;-70
2021/04/05 01:21:11;;;;;;;39.33;14.98;;;;;;;-1.94;88.62;99073.13;1808680;79;20901;-71
2021/04/05 01:23:39;;;;;;;42.78;18.85;;;;;;;-1.96;88.70;99071.22;1817179;78;20932;-70
2021/04/05 01:26:07;;;;;;;42.17;17.35;;;;;;;-1.96;89.29;99065.83;1817219;79;21553;-71
2021/04/05 01:28:34;;;;;;;44.80;18.17;;;;;;;-1.97;89.37;99063.39;1817161;79;21487;-70
2021/04/05 01:31:03;;;;;;;42.43;17.32;;;;;;;-2.01;89.28;99065.22;1817159;79;21406;-70
2021/04/05 01:33:34;;;;;;;30.97;15.72;;;;;;;-2.04;89.29;99058.99;1816700;78;20944;-72
2021/04/05 01:36:08;;;;;;;40.48;18.82;;;;;;;-2.05;89.30;99061.39;1816758;79;25151;-70
2021/04/05 01:38:41;;;;;;;;;;;;;;;-2.06;89.44;99061.11;1819304;79;21046;-70
2021/04/05 01:41:17;;;;;;;49.63;22.13;;;;;;;-2.07;89.46;99062.17;1816572;79;20153;-69
2021/04/05 01:43:45;;;;;;;51.65;26.23;;;;;;;-2.11;89.48;99061.03;1816546;79;21859;-70
2021/04/05 01:46:15;;;;;;;56.63;28.90;;;;;;;-2.11;89.55;99057.00;1816374;78;20936;-69
2021/04/05 01:48:44;;;;;;;53.68;24.40;;;;;;;-2.10;89.57;99061.31;1816568;79;20940;-69
2021/04/05 01:51:17;;;;;;;66.60;26.97;;;;;;;-2.11;89.62;99056.18;1816575;79;21082;-70
2021/04/05 01:53:46;;;;;;;53.40;24.95;;;;;;;-2.10;89.70;99056.47;1816559;79;21011;-69
2021/04/05 01:56:15;;;;;;;46.65;21.48;;;;;;;-2.11;89.63;99055.66;1816536;78;21358;-68
2021/04/05 01:58:46;;;;;;;50.25;22.35;;;;;;;-2.11;89.67;99058.34;1816482;79;20936;-69
2021/04/05 02:01:18;;;;;;;46.92;20.95;;;;;;;-2.09;89.77;99050.03;1816233;78;20904;-69
2021/04/05 02:03:46;;;;;;;48.75;22.10;;;;;;;-2.07;89.82;99052.76;1816609;79;21003;-69
2021/04/05 02:06:19;;;;;;;48.78;20.43;;;;;;;-2.06;89.84;99045.50;1816647;79;21069;-69
2021/04/05 02:08:47;;;;;;;55.78;20.65;;;;;;;-2.03;89.88;99043.14;1816663;79;22040;-69
2021/04/05 02:11:20;;;;;;;46.40;18.80;;;;;;;-2.01;89.85;99045.05;1816420;78;20956;-69
2021/04/05 02:13:49;;;;;;;48.30;18.95;;;;;;;-2.00;89.98;99041.30;1815537;79;21557;-69
2021/04/05 02:16:20;;;;;;;41.58;16.42;;;;;;;-1.98;90.08;99038.36;1816499;79;20955;-70
2021/04/05 02:18:48;;;;;;;45.35;18.20;;;;;;;-2.03;89.99;99037.76;1816638;79;20999;-69
2021/04/05 02:21:18;;;;;;;32.10;15.23;;;;;;;-2.05;90.26;99040.41;1816611;79;21533;-68
2021/04/05 02:23:48;;;;;;;38.85;15.25;;;;;;;-2.03;90.50;99040.98;1813690;78;20969;-69
2021/04/05 02:26:27;;;;;;;35.43;14.95;;;;;;;-1.95;90.86;99043.78;1813625;79;20999;-69
2021/04/05 02:28:59;;;;;;;41.13;14.58;;;;;;;-1.89;90.97;99034.73;1813636;79;21018;-69
2021/04/05 02:31:29;;;;;;;39.40;15.90;;;;;;;-1.78;91.37;99037.31;1813721;79;21000;-69
2021/04/05 02:33:58;;;;;;;41.00;15.83;;;;;;;-1.68;91.59;99040.66;1812394;79;21356;-69
2021/04/05 02:36:29;;;;;;;36.75;15.95;;;;;;;-1.58;91.73;99043.48;1786423;79;21023;-69
2021/04/05 02:39:01;;;;;;;34.80;15.40;;;;;;;-1.51;91.60;99041.95;1813649;78;21125;-69
2021/04/05 02:41:29;;;;;;;36.48;15.63;;;;;;;-1.50;91.23;99043.05;1813689;79;21011;-69
2021/04/05 02:43:59;;;;;;;44.08;16.37;;;;;;;-1.49;90.96;99042.52;1813696;79;21525;-69
2021/04/05 02:46:29;;;;;;;36.77;16.12;;;;;;;-1.48;90.81;99040.92;1786635;79;21191;-70
2021/04/05 02:48:59;;;;;;;41.20;15.65;;;;;;;-1.48;90.79;99034.20;1813640;78;20984;-70
2021/04/05 02:51:27;;;;;;;38.45;15.13;;;;;;;-1.47;90.74;99031.78;1813654;79;20979;-69
2021/04/05 02:53:59;;;;;;;41.20;15.95;;;;;;;-1.46;90.62;99030.72;1786617;79;21035;-69
2021/04/05 02:56:27;;;;;;;36.13;16.50;;;;;;;-1.42;90.66;99030.50;1786662;79;21007;-70
2021/04/05 02:58:56;;;;;;;30.40;13.98;;;;;;;-1.38;90.74;99030.28;1813576;78;21367;-70
2021/04/05 03:01:27;;;;;;;32.65;13.93;;;;;;;-1.35;90.71;99025.75;1813639;79;21007;-70
2021/04/05 03:03:59;;;;;;;33.53;13.53;;;;;;;-1.24;90.80;99025.87;1813722;79;21026;-70
2021/04/05 03:06:28;;;;;;;35.25;14.63;;;;;;;-1.24;90.80;99025.87;1813929;78;20939;-71
2021/04/05 03:09:01;;;;;;;35.63;14.65;;;;;;;-1.21;90.75;99022.14;1813766;79;21015;-70
2021/04/05 03:11:29;;;;;;;32.33;13.45;;;;;;;-1.17;90.79;99021.92;1813724;79;21362;-70
2021/04/05 03:13:57;;;;;;;31.42;13.38;;;;;;;-1.13;90.74;99020.85;1786761;79;21098;-70
2021/04/05 03:16:25;;;;;;;31.37;14.43;;;;;;;-1.11;90.76;99012.80;1813633;79;21185;-70
2021/04/05 03:18:57;;;;;;;33.53;14.53;;;;;;;-1.08;90.67;99018.22;1813624;79;20935;-70
2021/04/05 03:21:24;;;;;;;29.23;14.53;;;;;;;-1.06;90.61;99021.47;1813658;79;20916;-71
2021/04/05 03:23:52;;;;;;;31.27;14.23;;;;;;;-1.05;90.58;99014.48;1813490;78;21659;-69
2021/04/05 03:26:20;;;;;;;34.40;14.20;;;;;;;-1.02;90.63;99011.28;1813631;79;21197;-69
2021/04/05 03:28:47;;;;;;;27.35;12.10;;;;;;;-0.99;90.56;99004.58;1813710;79;21573;-69
2021/04/05 03:31:19;;;;;;;26.97;11.78;;;;;;;-0.98;90.42;99002.70;1813558;79;21039;-69
2021/04/05 03:34:10;;;;;;;24.40;12.70;;;;;;;-0.96;90.33;99003.26;1813752;79;21015;-70
2021/04/05 03:36:51;;;;;;;37.65;12.95;;;;;;;-0.97;90.25;99001.63;1813554;78;21357;-69
2021/04/05 03:39:19;;;;;;;42.25;13.20;;;;;;;-0.98;90.16;99002.16;1813581;79;20947;-69
2021/04/05 03:42:04;;;;;;;32.53;12.58;;;;;;;-0.96;90.18;99001.38;1813560;79;21162;-70
2021/04/05 03:45:01;;;;;;;44.40;13.93;;;;;;;-0.94;90.25;98992.51;1813620;79;20927;-69
2021/04/05 03:48:14;;;;;;;39.45;13.43;;;;;;;-0.89;90.21;98998.48;1813671;79;21478;-68
2021/04/05 03:51:13;;;;;;;76.25;27.67;;;;;;;-0.86;90.10;98997.44;1813757;79;21412;-69
2021/04/05 03:54:08;;;;;;;81.17;32.70;;;;;;;-0.77;90.03;99001.30;1855942;76;28120;-70
2021/04/05 03:56:44;;;;;;;60.83;25.80;;;;;;;-0.70;89.99;99002.45;1824543;78;20908;-69
2021/04/05 03:59:16;;;;;;;54.33;20.52;;;;;;;-0.60;89.75;99000.38;1833804;78;22137;-69
2021/04/05 04:01:48;;;;;;;48.42;20.65;;;;;;;-0.50;89.75;99001.78;1841838;78;21122;-69
2021/04/05 04:07:14;;;;;;;30.17;12.25;;;;;;;-0.36;89.73;99000.28;1775114;80;20980;-69
2021/04/05 04:09:36;;;;;;;30.00;10.82;;;;;;;-0.28;89.64;99001.70;1774338;80;20905;-69
2021/04/05 04:12:10;;;;;;;25.12;11.40;;;;;;;-0.22;89.53;98997.43;1797968;79;21186;-70
2021/04/05 04:14:37;;;;;;;23.27;10.70;;;;;;;-0.12;89.41;98999.39;1786467;79;20944;-70
2021/04/05 04:17:07;;;;;;;19.82;10.08;;;;;;;-0.08;89.20;98998.61;1808273;78;21538;-70
2021/04/05 04:19:36;;;;;;;23.90;10.75;;;;;;;-0.02;89.07;98994.87;1808249;79;21570;-69
2021/04/05 04:22:05;;;;;;;23.07;10.85;;;;;;;0.04;88.86;98992.99;1808326;79;21003;-69
2021/04/05 04:24:35;;;;;;;26.70;10.75;;;;;;;0.07;88.74;98987.08;1808114;78;21558;-69
2021/04/05 04:27:04;;;;;;;25.48;10.95;;;;;;;0.13;88.71;98990.62;1802064;79;20985;-69
2021/04/05 04:29:32;;;;;;;40.67;11.95;;;;;;;0.20;88.89;98989.31;1779079;79;21180;-69
2021/04/05 04:31:59;;;;;;;36.77;11.65;;;;;;;0.27;88.69;98984.50;1801767;79;21165;-69
2021/04/05 04:34:27;;;;;;;25.00;9.95;;;;;;;0.35;88.42;98993.98;1791959;79;21059;-69
2021/04/05 04:37:01;;;;;;;23.55;11.22;;;;;;;0.42;88.18;98984.30;1776006;80;21433;-69
2021/04/05 04:39:29;;;;;;;32.13;12.28;;;;;;;0.45;87.89;98985.13;1778401;79;21189;-69
2021/04/05 04:41:57;;;;;;;22.40;11.20;;;;;;;0.48;87.78;98988.11;1795688;78;21109;-69
2021/04/05 04:44:26;;;;;;;23.90;9.35;;;;;;;0.54;87.53;98978.95;1795622;80;21500;-69
2021/04/05 04:46:53;;;;;;;25.12;10.68;;;;;;;0.58;87.25;98969.22;1760375;81;21330;-70
2021/04/05 04:49:20;;;;;;;19.05;9.65;;;;;;;0.62;87.20;98967.61;1729050;83;21656;-73
2021/04/05 04:51:48;;;;;;;29.30;10.00;;;;;;;0.68;87.24;98964.92;1746779;82;21089;-70
2021/04/05 04:54:15;;;;;;;24.12;11.15;;;;;;;0.72;87.19;98967.38;1746270;81;21192;-74
2021/04/05 04:56:43;;;;;;;29.57;10.85;;;;;;;0.78;87.28;98959.55;1742322;81;21559;-70
2021/04/05 04:59:11;;;;;;;36.35;12.23;;;;;;;0.85;87.25;98952.83;1739443;82;21602;-75
2021/04/05 05:01:41;;;;;;;27.80;11.15;;;;;;;0.90;87.03;98952.84;1739361;82;21418;-70
2021/04/05 05:04:26;;;;;;;23.60;10.90;;;;;;;0.96;87.05;98949.06;1739004;81;21495;-70
2021/04/05 05:06:56;;;;;;;18.02;8.50;;;;;;;1.02;86.63;98955.84;1743889;81;21139;-71
2021/04/05 05:09:25;;;;;;;20.52;8.85;;;;;;;1.07;86.27;98957.19;1754461;81;20954;-72
2021/04/05 05:11:53;;;;;;;17.02;8.53;;;;;;;1.11;86.43;98952.34;1754452;81;20994;-70
2021/04/05 05:14:21;;;;;;;25.65;8.78;;;;;;;1.15;86.44;98952.08;1754435;81;21337;-72
2021/04/05 05:16:49;;;;;;;18.57;10.18;;;;;;;1.14;85.90;98948.28;1754354;81;21169;-69
2021/04/05 05:19:16;;;;;;;14.10;7.45;;;;;;;1.12;85.65;98954.50;1754464;81;20934;-77
2021/04/05 05:21:52;;;;;;;15.32;7.70;;;;;;;1.12;85.43;98956.66;1745391;81;21041;-77
2021/04/05 05:24:25;;;;;;;16.25;7.15;;;;;;;1.09;85.13;98951.80;1745947;81;21071;-74
2021/04/05 05:26:53;;;;;;;14.65;7.42;;;;;;;1.07;85.02;98949.89;1743489;81;21208;-76
2021/04/05 05:29:21;;;;;;;17.45;8.03;;;;;;;1.04;84.88;98949.08;1750276;81;21165;-75
2021/04/05 05:31:49;;;;;;;15.85;7.12;;;;;;;1.03;85.11;98944.75;1745447;81;21124;-77
2021/04/05 05:34:20;;;;;;;14.87;6.50;;;;;;;1.09;85.74;98949.09;1745349;81;21196;-74
2021/04/05 05:36:49;;;;;;;;;;;;;;;1.24;86.70;98944.21;1747723;81;21041;-76
2021/04/05 05:39:18;;;;;;;15.63;6.40;;;;;;;1.40;86.26;98939.08;1745613;81;21391;-76
2021/04/05 05:42:15;;;;;;;9.48;5.47;;;;;;;1.58;85.91;98936.38;1743961;81;21005;-77
2021/04/05 05:44:47;;;;;;;11.48;5.70;;;;;;;1.74;85.28;98926.32;1748108;81;20997;-75
2021/04/05 05:47:27;;;;;;;19.05;7.87;;;;;;;1.95;84.66;98927.91;1713894;81;21101;-74
2021/04/05 05:50:21;;;;;;;21.55;9.20;;;;;;;2.15;84.30;98929.75;1744479;81;21556;-71
2021/04/05 05:53:09;;;;;;;23.65;11.20;;;;;;;2.34;82.65;98925.33;1743276;81;22281;-72
2021/04/05 05:56:12;;;;;;;18.80;9.28;;;;;;;2.54;82.38;98916.30;1742197;82;20954;-73
2021/04/05 05:59:03;;;;;;;26.23;9.80;;;;;;;2.71;81.62;98911.34;1737333;82;21178;-72
2021/04/05 06:01:59;;;;;;;31.80;11.53;;;;;;;2.90;79.58;98914.19;1742308;82;21580;-72
2021/04/05 06:04:46;;;;;;;20.35;8.65;;;;;;;3.05;78.74;98902.43;1742054;81;21122;-81
2021/04/05 06:07:38;;;;;;;23.65;8.50;;;;;;;3.16;76.51;98899.36;1739514;82;21414;-72
2021/04/05 06:10:43;;;;;;;17.25;7.97;;;;;;;3.25;75.81;98899.02;1735311;81;21120;-72
2021/04/05 06:13:43;;;;;;;15.45;6.95;;;;;;;3.43;76.02;98899.43;1696363;84;21564;-72
2021/04/05 06:16:37;;;;;;;16.95;7.67;;;;;;;3.64;74.79;98900.29;1697346;84;21070;-74
2021/04/05 06:19:33;;;;;;;15.23;7.30;;;;;;;3.82;73.16;98897.41;1697485;84;21559;-72
2021/04/05 06:22:39;;;;;;;11.35;4.97;;;;;;;3.98;72.86;98897.51;1696718;84;22255;-72
2021/04/05 06:25:28;;;;;;;7.60;3.72;;;;;;;4.12;71.10;98900.86;1696799;84;21723;-71
2021/04/05 06:28:35;;;;;;;11.18;4.47;;;;;;;4.26;70.33;98895.80;1696792;84;21591;-72
2021/04/05 06:31:25;;;;;;;9.15;4.60;;;;;;;4.37;67.79;98893.78;1696799;84;22272;-76
2021/04/05 06:33:53;;;;;;;9.93;5.17;;;;;;;4.52;67.50;98892.23;1696529;84;21588;-72
2021/04/05 06:36:43;;;;;;;8.50;4.37;;;;;;;4.65;66.77;98881.97;1696591;84;21189;-72
2021/04/05 06:39:23;;;;;;;9.25;3.90;;;;;;;4.75;66.42;98886.45;1678789;84;21928;-71
2021/04/05 06:42:18;;;;;;;8.30;3.85;;;;;;;4.90;65.65;98886.79;1696790;84;21129;-73
2021/04/05 06:45:11;;;;;;;12.68;5.33;;;;;;;5.09;65.12;98888.14;1697166;84;21178;-72
2021/04/05 06:48:15;;;;;;;11.05;5.42;;;;;;;5.34;64.51;98883.63;1910151;74;22790;-74
2021/04/05 06:51:07;;;;;;;10.53;5.12;;;;;;;5.45;63.34;98886.44;1849982;77;20908;-70
2021/04/05 06:54:19;;;;;;;9.28;4.08;;;;;;;5.62;62.80;98891.33;1811448;77;21574;-72
2021/04/05 06:57:11;;;;;;;15.20;6.55;;;;;;;5.80;59.62;98887.72;1850052;77;20999;-71
2021/04/05 07:00:01;;;;;;;10.95;5.62;;;;;;;6.04;60.53;98885.41;1849962;77;20976;-73
2021/04/05 07:02:59;;;;;;;10.13;4.33;;;;;;;6.11;59.63;98882.53;1849970;77;21015;-72
2021/04/05 07:05:34;;;;;;;9.00;3.87;;;;;;;6.11;59.63;98882.53;1816654;78;20923;-72
2021/04/05 07:08:51;;;;;;;8.68;4.05;;;;;;;6.08;58.43;98882.33;1816670;79;21800;-73
2021/04/05 07:11:39;;;;;;;7.10;3.50;;;;;;;6.08;58.43;98882.33;1793377;79;20971;-73
2021/04/05 07:14:44;;;;;;;8.65;4.00;;;;;;;6.11;56.84;98878.45;1809362;79;21497;-72
2021/04/05 07:17:25;;;;;;;10.55;3.42;;;;;;;6.19;57.72;98872.84;1732167;82;21021;-74
2021/04/05 07:20:02;;;;;;;7.78;3.10;;;;;;;6.46;54.03;98866.55;1802715;79;21542;-74
2021/04/05 07:23:11;;;;;;;6.40;3.30;;;;;;;6.46;54.03;98866.55;1734031;82;21371;-75
2021/04/05 07:26:17;;;;;;;6.08;2.33;;;;;;;6.85;51.03;98855.05;1760067;79;20986;-75
2021/04/05 07:29:10;;;;;;;1.45;1.00;;;;;;;6.85;51.03;98855.05;1810458;79;21101;-75
2021/04/05 07:32:05;;;;;;;2.58;1.32;;;;;;;7.17;47.13;98854.81;1810450;79;21155;-72
2021/04/05 07:34:41;;;;;;;2.42;1.32;;;;;;;7.59;45.95;98853.45;1806782;78;21566;-72
2021/04/05 07:37:22;;;;;;;4.53;1.70;;;;;;;8.11;44.38;98848.77;1732722;82;21002;-72
2021/04/05 07:40:13;;;;;;;4.47;2.27;;;;;;;8.62;43.30;98852.25;1754891;79;21539;-72
2021/04/05 07:42:54;;;;;;;3.15;1.95;;;;;;;9.12;41.33;98835.34;1762495;80;21139;-74
2021/04/05 07:45:27;;;;;;;7.95;3.22;;;;;;;9.53;41.06;98829.30;1813005;79;21065;-75
2021/04/05 07:48:22;;;;;;;2.95;1.92;;;;;;;9.83;39.87;98828.79;1809450;78;21122;-71
2021/04/05 07:51:17;;;;;;;2.33;1.32;;;;;;;9.99;39.55;98820.83;1811371;78;21179;-73
2021/04/05 07:53:50;;;;;;;3.25;1.42;;;;;;;10.02;39.35;98824.28;1736938;82;21129;-71
2021/04/05 07:56:21;;;;;;;;;;;;;;;10.21;41.07;98817.85;1743992;81;21069;-75
2021/04/05 07:59:13;;;;;;;4.50;1.92;;;;;;;10.57;39.43;98818.66;1742532;81;20265;-74
2021/04/05 08:01:51;;;;;;;2.70;1.67;;;;;;;10.73;39.00;98808.70;1731500;82;21109;-72
2021/04/05 08:04:43;;;;;;;2.62;1.50;;;;;;;10.89;37.50;98806.16;1731812;82;21813;-72
2021/04/05 08:07:35;;;;;;;2.83;1.40;;;;;;;10.88;36.92;98807.30;1765151;80;21116;-71
2021/04/05 08:10:19;;;;;;;2.08;1.42;;;;;;;10.75;37.26;98801.50;1751460;79;20935;-74
2021/04/05 08:13:01;;;;;;;2.42;1.20;;;;;;;10.77;37.21;98801.98;1750996;81;21497;-73
2021/04/05 08:15:54;;;;;;;4.08;1.60;;;;;;;10.88;37.26;98793.57;1751313;81;21140;-72
2021/04/05 08:18:27;;;;;;;1.87;1.20;;;;;;;10.74;36.76;98791.09;1749109;81;21823;-72
2021/04/05 08:21:26;;;;;;;1.42;0.93;;;;;;;10.45;37.01;98791.94;1750796;81;21042;-73
2021/04/05 08:24:53;;;;;;;3.17;1.80;;;;;;;10.40;37.53;98788.02;1751786;81;21128;-71
2021/04/05 08:27:40;;;;;;;2.45;1.52;;;;;;;10.77;38.19;98775.89;1752654;81;20993;-71
2021/04/05 08:30:21;;;;;;;4.05;1.72;;;;;;;10.94;37.42;98773.58;1748614;81;21189;-72
2021/04/05 08:33:11;;;;;;;5.17;2.00;;;;;;;10.67;35.97;98770.23;1750224;81;21492;-74
2021/04/05 08:35:46;;;;;;;7.65;3.52;;;;;;;10.29;37.77;98762.14;1751390;81;20992;-73
2021/04/05 08:38:43;;;;;;;9.75;3.42;;;;;;;9.99;37.71;98765.98;1754309;81;21022;-73
2021/04/05 08:41:31;;;;;;;10.63;4.00;;;;;;;9.69;37.56;98763.81;1748154;81;21059;-73
2021/04/05 08:44:21;;;;;;;10.35;4.83;;;;;;;9.31;38.58;98759.66;1752950;81;21198;-74
2021/04/05 08:46:50;;;;;;;7.92;3.30;;;;;;;9.06;38.59;98753.94;1750268;81;21820;-75
2021/04/05 08:49:21;;;;;;;3.70;1.82;;;;;;;8.71;38.75;98750.98;1741515;81;21148;-75
2021/04/05 08:51:57;;;;;;;5.17;2.10;;;;;;;8.51;39.61;98746.99;1725479;83;21587;-75
2021/04/05 08:54:29;;;;;;;6.55;2.35;;;;;;;8.35;38.86;98745.84;1754233;81;21536;-73
2021/04/05 08:57:01;;;;;;;4.10;2.05;;;;;;;8.17;38.41;98738.15;1729684;82;21170;-74
2021/04/05 09:00:08;;;;;;;4.15;1.47;;;;;;;8.04;38.35;98737.75;1730821;82;21383;-72
2021/04/05 09:02:45;;;;;;;3.50;1.62;;;;;;;7.94;38.92;98738.29;1719983;83;20923;-73
2021/04/05 09:05:29;;;;;;;5.58;2.45;;;;;;;7.92;39.87;98737.80;1805906;79;20879;-76
2021/04/05 09:08:06;;;;;;;4.28;1.52;;;;;;;7.93;39.37;98727.11;1721462;83;21504;-75
2021/04/05 09:10:53;;;;;;;3.20;1.17;;;;;;;7.98;39.53;98730.83;1805311;79;20911;-72
2021/04/05 09:13:46;;;;;;;2.15;1.37;;;;;;;7.96;39.06;98721.58;1721491;83;22384;-73
2021/04/05 09:16:41;;;;;;;2.42;1.47;;;;;;;7.91;39.50;98714.89;1805444;79;21468;-76
2021/04/05 09:20:00;;;;;;;5.87;2.10;;;;;;;7.90;39.87;98706.45;1714143;83;21007;-73
2021/04/05 09:23:25;;;;;;;3.52;1.90;;;;;;;7.99;39.93;98703.73;1792329;79;20934;-78
2021/04/05 09:26:30;;;;;;;3.60;1.82;;;;;;;8.03;38.96;98695.14;1815863;79;20938;-83
2021/04/05 09:29:24;;;;;;;2.85;1.70;;;;;;;8.09;38.42;98691.91;1815644;79;22240;-73
2021/04/05 09:32:10;;;;;;;5.87;2.10;;;;;;;8.09;38.91;98687.00;1714176;83;21048;-77
2021/04/05 09:35:18;;;;;;;4.70;2.42;;;;;;;8.14;39.67;98685.48;1783543;80;21054;-86
2021/04/05 09:38:01;;;;;;;3.92;2.02;;;;;;;8.17;39.81;98683.47;1783733;80;20924;-73
2021/04/05 09:41:15;;;;;;;5.47;1.80;;;;;;;8.23;40.08;98678.09;1768198;80;21184;-72
2021/04/05 09:44:23;;;;;;;2.42;1.30;;;;;;;8.27;40.16;98679.06;1783769;80;21418;-78
2021/04/05 09:47:12;;;;;;;4.62;1.47;;;;;;;8.24;39.27;98676.97;1783768;80;21023;-84
2021/04/05 09:50:08;;;;;;;2.65;1.40;;;;;;;8.20;39.08;98669.16;1786652;80;21580;-74
2021/04/05 09:52:59;;;;;;;5.90;2.58;;;;;;;8.13;38.93;98672.94;1786844;80;20931;-73
2021/04/05 09:55:33;;;;;;;9.20;4.50;;;;;;;8.11;39.11;98675.98;1785990;80;20962;-73
2021/04/05 09:58:10;;;;;;;6.55;2.80;;;;;;;8.12;38.24;98671.33;1786336;80;21367;-74
2021/04/05 10:00:37;;;;;;;4.72;2.10;;;;;;;8.06;38.54;98671.27;1786165;80;20951;-74
2021/04/05 10:03:07;;;;;;;3.87;2.00;;;;;;;8.03;39.91;98669.17;1786194;80;20991;-75
2021/04/05 10:05:37;;;;;;;4.70;2.40;;;;;;;8.06;40.46;98661.70;1792297;78;21473;-73
2021/04/05 10:08:05;;;;;;;6.08;2.37;;;;;;;8.05;40.76;98662.27;1814283;78;20939;-78
2021/04/05 10:10:32;;;;;;;3.10;2.00;;;;;;;8.01;40.81;98657.76;1802930;78;21630;-75
2021/04/05 10:13:02;;;;;;;5.17;2.58;;;;;;;8.00;40.90;98660.25;1690455;83;21041;-76
2021/04/05 10:15:31;;;;;;;6.42;3.35;;;;;;;8.01;41.49;98662.66;1717471;82;20994;-74
2021/04/05 10:17:59;;;;;;;4.75;2.80;;;;;;;8.04;41.31;98652.45;1744281;82;21037;-76
2021/04/05 10:20:30;;;;;;;5.65;3.10;;;;;;;8.13;40.93;98647.77;1761429;81;21078;-72
2021/04/05 10:23:08;;;;;;;11.60;2.02;;;;;;;8.16;40.83;98649.86;1756282;81;21190;-73
2021/04/05 10:25:37;;;;;;;28.23;9.33;;;;;;;8.16;40.62;98648.50;1717380;83;21629;-81
2021/04/05 10:28:06;;;;;;;9.20;4.17;;;;;;;8.16;40.52;98643.59;1730776;82;21079;-77
2021/04/05 10:30:37;;;;;;;8.25;3.85;;;;;;;8.14;40.57;98633.54;1717522;83;21599;-81
2021/04/05 10:33:16;;;;;;;8.33;2.05;;;;;;;8.12;38.78;98625.66;1741373;82;21130;-74
2021/04/05 10:35:48;;;;;;;21.57;9.40;;;;;;;8.10;38.67;98621.64;1717366;83;22099;-76
2021/04/05 10:38:16;;;;;;;4.53;2.00;;;;;;;8.07;39.41;98625.05;1731208;82;21090;-78
2021/04/05 10:40:44;;;;;;;7.12;2.70;;;;;;;8.04;38.16;98622.39;1717627;83;20962;-71
2021/04/05 10:43:19;;;;;;;6.28;2.85;;;;;;;8.02;38.10;98637.50;1730752;82;21023;-80
2021/04/05 10:46:17;;;;;;;9.40;3.70;;;;;;;8.00;38.33;98621.98;1717486;83;21168;-78
2021/04/05 10:49:01;;;;;;;5.92;2.75;;;;;;;8.03;39.06;98619.98;1740670;82;21201;-77
2021/04/05 10:51:48;;;;;;;11.00;4.40;;;;;;;8.17;37.57;98620.03;1889518;76;22687;-77
2021/04/05 10:54:36;;;;;;;8.48;2.50;;;;;;;8.15;37.84;98616.02;1860697;77;21066;-75
2021/04/05 10:57:13;;;;;;;3.25;1.62;;;;;;;8.17;38.10;98602.83;1860715;77;21252;-71
2021/04/05 11:00:01;;;;;;;11.55;2.10;;;;;;;8.23;37.74;98606.44;1860635;77;21639;-74
2021/04/05 11:02:42;;;;;;;3.35;1.87;;;;;;;8.31;37.87;98605.39;1860370;77;20979;-80
2021/04/05 11:05:12;;;;;;;4.70;2.55;;;;;;;8.34;37.01;98589.17;1826798;78;20944;-70
2021/04/05 11:07:41;;;;;;;4.22;1.87;;;;;;;8.34;37.28;98593.27;1826774;78;21027;-68
2021/04/05 11:10:19;;;;;;;5.33;2.10;;;;;;;8.36;35.63;98587.48;1826892;78;21150;-70
2021/04/05 11:12:55;;;;;;;8.38;3.77;;;;;;;8.33;35.93;98589.49;1826956;78;20995;-69
2021/04/05 11:15:27;;;;;;;7.35;2.92;;;;;;;8.33;35.50;98586.20;1826611;78;21058;-70
2021/04/05 11:17:56;;;;;;;236.30;100.07;;;;;;;8.39;35.91;98587.63;1827107;78;20932;-72
2021/04/05 11:20:35;;;;;;;23.05;10.48;;;;;;;8.52;34.88;98573.53;1824376;78;20921;-69
2021/04/05 11:23:17;;;;;;;14.33;7.62;;;;;;;8.65;34.80;98572.53;1810892;78;21851;-70
2021/04/05 11:25:50;;;;;;;19.17;7.42;;;;;;;8.77;34.57;98567.16;1794849;80;20921;-72
2021/04/05 11:28:28;;;;;;;10.63;4.35;;;;;;;8.96;33.84;98555.02;1794885;80;21463;-70
2021/04/05 11:31:12;;;;;;;36.85;14.85;;;;;;;9.20;33.74;98554.66;1794732;80;20906;-67
2021/04/05 11:33:43;;;;;;;;;;;;;;;9.58;33.45;98551.81;1797404;80;21146;-73
2021/04/05 11:36:11;;;;;;;6.40;1.90;;;;;;;9.83;33.12;98548.62;1794814;80;21818;-77
2021/04/05 11:38:48;;;;;;;4.75;1.70;;;;;;;9.98;31.64;98551.89;1794650;80;20936;-71
2021/04/05 11:41:18;;;;;;;3.83;1.82;;;;;;;10.11;30.84;98541.22;1790321;80;20917;-69
2021/04/05 11:43:51;;;;;;;3.87;1.87;;;;;;;10.47;32.14;98536.42;1794776;79;20936;-70
2021/04/05 11:46:19;;;;;;;5.42;1.40;;;;;;;11.12;29.14;98532.71;1764826;80;21150;-71
2021/04/05 11:49:01;;;;;;;4.47;1.92;;;;;;;11.45;28.17;98526.28;1764357;80;21471;-69
2021/04/05 11:51:48;;;;;;;15.25;7.08;;;;;;;11.82;27.94;98518.18;1862770;75;22722;-68
2021/04/05 11:54:30;;;;;;;3.80;1.65;;;;;;;11.99;28.13;98512.97;1813309;78;20884;-70
2021/04/05 11:57:01;;;;;;;4.17;1.90;;;;;;;11.97;28.64;98509.77;1772868;79;21366;-74
2021/04/05 11:59:28;;;;;;;16.50;7.08;;;;;;;11.53;29.44;98518.48;1808600;79;20960;-71
2021/04/05 12:02:03;;;;;;;8.03;3.75;;;;;;;11.08;30.46;98513.14;1802446;79;20957;-71
2021/04/05 12:04:47;;;;;;;7.25;2.30;;;;;;;11.01;31.74;98512.34;1808605;79;21003;-69
2021/04/05 12:07:20;;;;;;;4.62;2.60;;;;;;;11.32;30.13;98508.20;1808695;79;20908;-70
2021/04/05 12:10:07;;;;;;;5.30;2.77;;;;;;;11.64;28.79;98505.83;1781275;79;21178;-71
2021/04/05 12:12:41;;;;;;;11.00;4.33;;;;;;;11.69;28.78;98506.16;1808592;79;20936;-69
2021/04/05 12:15:16;;;;;;;4.28;2.15;;;;;;;11.43;28.63;98510.70;1808497;79;20980;-69
2021/04/05 12:17:48;;;;;;;2.80;1.60;;;;;;;11.04;28.59;98503.41;1806102;79;21231;-69
2021/04/05 12:20:16;;;;;;;3.17;1.60;;;;;;;10.65;29.26;98495.88;1779897;79;21150;-69
2021/04/05 12:22:44;;;;;;;4.47;2.10;;;;;;;10.27;30.06;98498.34;1807456;79;21190;-69